Current Weather

Sydney Intl

Sydney Intl, Australia (YSSY)

Report from: Saturday, July 13, 2024 8:30 AM AEST
Current time: Saturday, July 13, 2024 9:13 AM AEST

Nearby weather – Weather history – Daily summaries
Weather forecast

Temperature14.0°C (57.2°F)
Dew point7.0°C (44.6°F)
Winds 10 kts (5.1 m/s, 11.5 mph) West-Southwest (250°)
Clouds Sky clear
Altimeter29.85 in.Hg (1011 mB)
Relative humidity63 %
Density altitude103 ft. (31 m)
Remarks Ceiling and visibility OK
Flight conditions Visual Meteorological Conditions
Raw dataYSSY 122230Z 25010KT CAVOK 14/07 Q1011 SCT180
An unhandled exception has occurred. See browser dev tools for details. Reload 🗙